createdAt,value
2017-10-23T00:01:27.551Z,83.96
2017-10-23T00:03:56.331Z,84.25
2017-10-23T00:06:25.937Z,83.70
2017-10-23T00:08:55.007Z,82.96
2017-10-23T00:11:23.331Z,83.28
2017-10-23T00:13:52.411Z,83.65
2017-10-23T00:16:20.723Z,83.63
2017-10-23T00:18:49.043Z,84.25
2017-10-23T00:21:17.750Z,84.21
2017-10-23T00:23:46.907Z,84.36
2017-10-23T00:26:15.228Z,84.63
2017-10-23T00:28:43.557Z,85.34
2017-10-23T00:31:11.880Z,85.77
2017-10-23T00:33:40.186Z,85.38
2017-10-23T00:36:08.502Z,85.40
2017-10-23T00:38:36.823Z,85.70
2017-10-23T00:41:05.166Z,86.14
2017-10-23T00:43:33.522Z,86.55
2017-10-23T00:46:01.847Z,86.30
2017-10-23T00:48:30.527Z,86.23
2017-10-23T00:50:58.853Z,85.22
2017-10-23T00:53:27.177Z,86.01
2017-10-23T00:55:56.073Z,85.64
2017-10-23T00:58:24.393Z,84.59
2017-10-23T01:00:54.026Z,84.97
2017-10-23T01:03:22.352Z,85.31
2017-10-23T01:05:50.672Z,85.67
2017-10-23T01:08:19.481Z,85.94
2017-10-23T01:10:47.787Z,84.74
2017-10-23T01:13:16.102Z,84.67
2017-10-23T01:15:44.924Z,85.18
2017-10-23T01:18:13.225Z,85.75
2017-10-23T01:20:41.543Z,85.95
2017-10-23T01:23:10.313Z,86.49
2017-10-23T01:25:38.791Z,86.85
2017-10-23T01:28:08.726Z,86.02
2017-10-23T01:30:37.312Z,85.60
2017-10-23T01:33:06.382Z,85.49
2017-10-23T01:35:34.696Z,86.96
2017-10-23T01:38:03.817Z,87.55
2017-10-23T01:40:32.145Z,87.87
2017-10-23T01:43:00.479Z,87.34
2017-10-23T01:45:28.786Z,87.38
2017-10-23T01:47:57.119Z,86.67
2017-10-23T01:50:25.904Z,86.51
2017-10-23T01:52:54.993Z,86.68
2017-10-23T01:55:23.309Z,87.11
2017-10-23T01:57:51.614Z,87.92
2017-10-23T02:00:19.949Z,88.27
2017-10-23T02:02:48.275Z,88.28
2017-10-23T02:05:16.614Z,88.21
2017-10-23T02:07:44.942Z,88.10
2017-10-23T02:10:14.775Z,88.20
2017-10-23T02:12:43.846Z,88.42
2017-10-23T02:15:12.175Z,88.90
2017-10-23T02:17:40.494Z,88.89
2017-10-23T02:20:08.806Z,88.62
2017-10-23T02:22:37.151Z,88.75
2017-10-23T02:25:05.483Z,88.69
2017-10-23T02:27:33.804Z,88.08
2017-10-23T02:30:02.154Z,87.73
2017-10-23T02:32:30.466Z,88.30
2017-10-23T02:34:58.778Z,88.58
2017-10-23T02:37:27.093Z,88.29
2017-10-23T02:39:55.422Z,88.32
2017-10-23T02:42:23.724Z,88.59
2017-10-23T02:44:52.821Z,88.93
2017-10-23T02:47:21.145Z,88.90
2017-10-23T02:49:49.452Z,89.25
2017-10-23T02:52:17.796Z,88.81
2017-10-23T02:54:46.103Z,89.16
2017-10-23T02:57:15.252Z,88.99
2017-10-23T02:59:43.569Z,89.01
2017-10-23T03:02:11.881Z,89.27
2017-10-23T03:04:40.209Z,89.64
2017-10-23T03:07:08.751Z,89.53
2017-10-23T03:09:37.843Z,89.64
2017-10-23T03:12:06.156Z,89.68
2017-10-23T03:14:34.912Z,90.17
2017-10-23T03:17:03.287Z,89.90
2017-10-23T03:19:31.612Z,89.58
2017-10-23T03:21:59.942Z,89.35
2017-10-23T03:24:29.124Z,89.53
2017-10-23T03:26:57.465Z,89.51
2017-10-23T03:29:25.807Z,89.72
2017-10-23T03:31:54.132Z,89.77
2017-10-23T03:34:22.463Z,89.78
2017-10-23T03:36:51.573Z,89.91
2017-10-23T03:39:19.909Z,89.69
2017-10-23T03:41:48.226Z,89.73
2017-10-23T03:44:17.330Z,89.35
2017-10-23T03:46:46.791Z,89.72
2017-10-23T03:49:15.894Z,89.58
2017-10-23T03:51:44.206Z,89.92
2017-10-23T03:54:13.299Z,90.19
2017-10-23T03:56:42.799Z,90.17
2017-10-23T03:59:11.867Z,90.24
2017-10-23T04:01:40.195Z,89.93
2017-10-23T04:04:08.517Z,89.44
2017-10-23T04:06:37.337Z,89.24
2017-10-23T04:09:06.407Z,89.65
2017-10-23T04:11:34.711Z,89.76
2017-10-23T04:14:03.091Z,89.54
2017-10-23T04:16:31.418Z,89.73
2017-10-23T04:18:59.812Z,89.23
2017-10-23T04:21:28.153Z,89.53
2017-10-23T04:23:57.581Z,89.39
2017-10-23T04:26:25.887Z,88.98
2017-10-23T04:28:54.183Z,88.98
2017-10-23T04:31:22.512Z,88.92
2017-10-23T04:33:51.636Z,88.99
2017-10-23T04:36:19.984Z,89.00
2017-10-23T04:38:50.312Z,88.81
2017-10-23T04:41:18.965Z,88.92
2017-10-23T04:43:47.274Z,88.95
2017-10-23T04:46:15.612Z,89.45
2017-10-23T04:48:43.950Z,89.01
2017-10-23T04:51:12.282Z,89.01
2017-10-23T04:53:40.612Z,89.87
2017-10-23T04:56:09.078Z,89.60
2017-10-23T04:58:37.406Z,89.62
2017-10-23T05:01:05.743Z,89.92
2017-10-23T05:03:34.048Z,89.98
2017-10-23T05:06:02.411Z,90.12
2017-10-23T05:08:30.724Z,90.34
2017-10-23T05:10:59.056Z,90.28
2017-10-23T05:13:27.431Z,89.94
2017-10-23T05:15:56.266Z,89.85
2017-10-23T05:18:24.570Z,89.83
2017-10-23T05:20:53.674Z,89.90
2017-10-23T05:23:22.019Z,89.63
2017-10-23T05:25:50.387Z,89.64
2017-10-23T05:28:18.743Z,89.74
2017-10-23T05:30:47.052Z,89.68
2017-10-23T05:33:15.371Z,89.97
2017-10-23T05:35:43.697Z,89.89
2017-10-23T05:38:12.024Z,89.93
2017-10-23T05:40:40.370Z,89.70
2017-10-23T05:43:08.684Z,89.39
2017-10-23T05:45:37.767Z,89.29
2017-10-23T05:48:06.092Z,89.68
2017-10-23T05:50:34.428Z,89.91
2017-10-23T05:53:02.854Z,89.83
2017-10-23T05:55:31.194Z,90.03
2017-10-23T05:58:00.290Z,90.04
2017-10-23T06:00:29.423Z,90.49
2017-10-23T06:02:58.040Z,90.43
2017-10-23T06:05:26.360Z,89.89
2017-10-23T06:07:54.691Z,89.53
2017-10-23T06:10:23.042Z,89.97
2017-10-23T06:12:51.378Z,90.02
2017-10-23T06:15:20.464Z,90.40
2017-10-23T06:17:49.581Z,90.57
2017-10-23T06:20:17.923Z,90.50
2017-10-23T06:22:46.242Z,90.07
2017-10-23T06:25:14.570Z,90.42
2017-10-23T06:27:42.879Z,90.43
2017-10-23T06:30:11.253Z,90.23
2017-10-23T06:32:39.589Z,90.59
2017-10-23T06:35:07.905Z,90.53
2017-10-23T06:37:36.245Z,90.22
2017-10-23T06:40:04.542Z,90.59
2017-10-23T06:42:32.907Z,90.55
2017-10-23T06:45:01.267Z,90.29
2017-10-23T06:47:29.659Z,90.25
2017-10-23T06:49:57.980Z,90.28
2017-10-23T06:52:26.319Z,90.04
2017-10-23T06:54:54.646Z,90.33
2017-10-23T06:57:22.942Z,90.37
2017-10-23T06:59:52.041Z,89.98
2017-10-23T07:02:20.354Z,90.10
2017-10-23T07:04:48.697Z,89.81
2017-10-23T07:07:17.004Z,89.71
2017-10-23T07:09:45.333Z,89.75
2017-10-23T07:12:13.667Z,90.26
2017-10-23T07:14:41.986Z,90.00
2017-10-23T07:17:10.373Z,89.77
2017-10-23T07:19:38.691Z,89.61
2017-10-23T07:22:07.375Z,90.00
2017-10-23T07:24:35.698Z,89.95
2017-10-23T07:27:04.135Z,89.72
2017-10-23T07:29:32.501Z,89.74
2017-10-23T07:32:00.930Z,89.84
2017-10-23T07:34:29.293Z,89.36
2017-10-23T07:36:57.930Z,87.90
2017-10-23T07:39:26.953Z,87.37
2017-10-23T07:41:55.564Z,86.87
2017-10-23T07:44:23.899Z,86.01
2017-10-23T07:46:52.355Z,85.49
2017-10-23T07:49:21.181Z,85.10
2017-10-23T07:51:49.792Z,85.27
2017-10-23T07:54:18.120Z,86.23
2017-10-23T07:56:46.509Z,87.29
2017-10-23T07:59:14.874Z,87.53
2017-10-23T08:01:43.323Z,87.54
2017-10-23T08:04:11.667Z,87.68
2017-10-23T08:06:40.127Z,88.07
2017-10-23T08:09:08.505Z,87.68
2017-10-23T08:11:37.225Z,86.96
2017-10-23T08:14:06.115Z,85.73
2017-10-23T08:16:34.508Z,85.94
2017-10-23T08:19:04.170Z,84.78
2017-10-23T08:21:32.662Z,84.92
2017-10-23T08:24:01.293Z,85.63
2017-10-23T08:26:29.655Z,85.61
2017-10-23T08:28:57.982Z,85.13
2017-10-23T08:31:26.609Z,83.45
2017-10-23T08:33:54.945Z,83.74
2017-10-23T08:36:23.418Z,83.74
2017-10-23T08:38:52.135Z,83.23
2017-10-23T08:41:20.496Z,83.48
2017-10-23T08:43:49.604Z,81.95
2017-10-23T08:46:17.925Z,81.66
2017-10-23T08:48:46.553Z,81.13
2017-10-23T08:51:14.887Z,80.83
2017-10-23T08:53:43.975Z,81.61
2017-10-23T08:56:12.799Z,81.03
2017-10-23T08:58:41.156Z,80.91
2017-10-23T09:01:10.292Z,81.26
2017-10-23T09:03:38.690Z,81.80
2017-10-23T09:06:07.343Z,81.77
2017-10-23T09:08:35.689Z,80.92
2017-10-23T09:11:04.382Z,80.79
2017-10-23T09:13:33.281Z,81.07
2017-10-23T09:16:01.672Z,82.36
2017-10-23T09:18:30.049Z,81.48
2017-10-23T09:20:58.471Z,81.65
2017-10-23T09:23:26.845Z,81.97
2017-10-23T09:25:55.175Z,80.92
2017-10-23T09:28:24.284Z,81.20
2017-10-23T09:30:52.640Z,81.46
2017-10-23T09:33:20.958Z,80.62
2017-10-23T09:35:49.306Z,80.60
2017-10-23T09:38:17.638Z,80.94
2017-10-23T09:40:45.991Z,79.96
2017-10-23T09:43:14.412Z,79.80
2017-10-23T09:45:42.780Z,80.65
2017-10-23T09:48:11.186Z,79.40
2017-10-23T09:50:39.880Z,79.25
2017-10-23T09:53:08.219Z,79.00
2017-10-23T09:55:36.540Z,78.33
2017-10-23T09:58:04.910Z,77.68
2017-10-23T10:00:33.273Z,78.85
2017-10-23T10:03:01.658Z,78.66
2017-10-23T10:05:30.102Z,77.88
2017-10-23T10:07:58.590Z,79.10
2017-10-23T10:10:27.031Z,78.81
2017-10-23T10:12:55.375Z,77.92
2017-10-23T10:15:23.837Z,78.76
2017-10-23T10:17:52.216Z,77.80
2017-10-23T10:20:21.483Z,78.75
2017-10-23T10:22:49.820Z,78.85
2017-10-23T10:25:18.148Z,77.24
2017-10-23T10:27:47.351Z,76.69
2017-10-23T10:30:15.709Z,77.51
2017-10-23T10:32:44.098Z,77.21
2017-10-23T10:35:12.452Z,76.99
2017-10-23T10:37:41.247Z,76.60
2017-10-23T10:40:09.673Z,77.06
2017-10-23T10:42:38.004Z,77.00
2017-10-23T10:45:06.364Z,78.11
2017-10-23T10:47:35.194Z,77.15
2017-10-23T10:50:04.841Z,77.64
2017-10-23T10:52:33.177Z,77.34
2017-10-23T10:55:02.528Z,76.70
2017-10-23T10:57:30.936Z,76.56
2017-10-23T10:59:59.675Z,76.55
2017-10-23T11:02:28.066Z,77.29
2017-10-23T11:04:56.378Z,77.01
2017-10-23T11:07:24.774Z,76.74
2017-10-23T11:09:53.094Z,76.62
2017-10-23T11:12:21.415Z,76.55
2017-10-23T11:14:49.777Z,76.58
2017-10-23T11:17:18.111Z,77.62
2017-10-23T11:19:47.723Z,77.04
2017-10-23T11:22:16.814Z,77.19
2017-10-23T11:24:46.435Z,77.38
2017-10-23T11:27:14.987Z,76.73
2017-10-23T11:29:43.703Z,76.34
2017-10-23T11:32:12.060Z,75.60
2017-10-23T11:34:40.369Z,75.82
2017-10-23T11:37:09.161Z,75.48
2017-10-23T11:39:37.485Z,75.06
2017-10-23T11:42:05.843Z,75.56
2017-10-23T11:44:34.569Z,74.51
2017-10-23T11:47:02.947Z,75.62
2017-10-23T11:49:31.648Z,76.05
2017-10-23T11:51:59.959Z,75.82
2017-10-23T11:54:28.286Z,74.74
2017-10-23T11:56:56.630Z,75.84
2017-10-23T11:59:24.977Z,75.58
2017-10-23T12:01:53.320Z,75.49
2017-10-23T12:04:21.919Z,75.04
2017-10-23T12:06:50.606Z,74.37
2017-10-23T12:09:18.956Z,74.83
2017-10-23T12:11:47.702Z,75.34
2017-10-23T12:14:16.798Z,74.96
2017-10-23T12:16:45.900Z,74.81
2017-10-23T12:19:14.982Z,74.94
2017-10-23T12:21:44.099Z,75.65
2017-10-23T12:24:12.443Z,75.17
2017-10-23T12:26:40.766Z,75.68
2017-10-23T12:29:09.207Z,75.73
2017-10-23T12:31:37.528Z,75.47
2017-10-23T12:34:05.898Z,75.63
2017-10-23T12:36:34.219Z,75.41
2017-10-23T12:39:02.687Z,75.79
2017-10-23T12:41:31.027Z,75.73
2017-10-23T12:43:59.355Z,75.69
2017-10-23T12:46:27.744Z,75.72
2017-10-23T12:48:56.070Z,76.49
2017-10-23T12:51:24.418Z,76.14
2017-10-23T12:53:52.739Z,75.55
2017-10-23T12:56:21.097Z,75.12
2017-10-23T12:58:50.198Z,75.78
2017-10-23T13:01:18.520Z,74.81
2017-10-23T13:03:47.629Z,74.48
2017-10-23T13:06:16.346Z,74.88
2017-10-23T13:08:45.438Z,73.59
2017-10-23T13:11:14.604Z,73.90
2017-10-23T13:13:43.388Z,73.39
2017-10-23T13:16:11.723Z,73.69
2017-10-23T13:18:40.807Z,73.48
2017-10-23T13:21:10.326Z,73.19
2017-10-23T13:23:39.424Z,72.27
2017-10-23T13:26:08.537Z,72.84
2017-10-23T13:28:37.280Z,73.00
2017-10-23T13:31:05.878Z,73.91
2017-10-23T13:33:34.359Z,72.12
2017-10-23T13:36:02.682Z,73.07
2017-10-23T13:38:31.038Z,73.20
2017-10-23T13:40:59.382Z,72.35
2017-10-23T13:43:29.236Z,73.12
2017-10-23T13:45:58.715Z,73.64
2017-10-23T13:48:27.828Z,73.98
2017-10-23T13:50:56.933Z,74.12
2017-10-23T13:53:25.751Z,74.05
2017-10-23T13:55:54.086Z,74.68
2017-10-23T13:58:23.182Z,74.57
2017-10-23T14:00:51.564Z,74.70
2017-10-23T14:03:19.920Z,74.31
2017-10-23T14:05:48.271Z,74.23
2017-10-23T14:08:16.595Z,74.83
2017-10-23T14:10:45.401Z,74.25
2017-10-23T14:13:14.487Z,74.29
2017-10-23T14:15:42.807Z,73.94
2017-10-23T14:18:11.138Z,73.53
2017-10-23T14:20:39.454Z,73.21
2017-10-23T14:23:07.832Z,73.69
2017-10-23T14:25:37.041Z,73.45
2017-10-23T14:28:05.379Z,73.16
2017-10-23T14:30:33.714Z,73.58
2017-10-23T14:33:02.309Z,73.15
2017-10-23T14:35:30.623Z,73.63
2017-10-23T14:37:59.715Z,73.91
2017-10-23T14:40:28.065Z,73.42
2017-10-23T14:42:56.378Z,73.15
2017-10-23T14:45:24.784Z,73.23
2017-10-23T14:47:54.380Z,73.39
2017-10-23T14:50:24.007Z,73.47
2017-10-23T14:52:52.339Z,73.22
2017-10-23T14:55:20.814Z,73.97
2017-10-23T14:57:49.149Z,74.18
2017-10-23T15:00:17.511Z,73.84
2017-10-23T15:02:46.624Z,73.54
2017-10-23T15:05:14.936Z,72.44
2017-10-23T15:07:43.355Z,72.98
2017-10-23T15:10:11.741Z,73.50
2017-10-23T15:12:40.449Z,73.13
2017-10-23T15:15:08.823Z,73.50
2017-10-23T15:17:37.147Z,73.49
2017-10-23T15:20:05.490Z,73.25
2017-10-23T15:22:33.848Z,73.31
2017-10-23T15:25:02.978Z,73.22
2017-10-23T15:27:31.303Z,73.04
2017-10-23T15:30:00.005Z,73.80
2017-10-23T15:32:29.165Z,74.14
2017-10-23T15:34:57.913Z,74.17
2017-10-23T15:37:26.257Z,74.07
2017-10-23T15:39:54.669Z,74.42
2017-10-23T15:42:23.768Z,75.35
2017-10-23T15:44:53.265Z,76.17
2017-10-23T15:47:22.386Z,75.56
2017-10-23T15:49:50.720Z,76.27
2017-10-23T15:52:19.049Z,76.42
2017-10-23T15:54:47.412Z,76.19
2017-10-23T15:57:15.754Z,76.42
2017-10-23T15:59:44.108Z,77.05
2017-10-23T16:02:12.427Z,77.29
2017-10-23T16:04:41.057Z,77.73
2017-10-23T16:07:09.971Z,77.21
2017-10-23T16:09:38.342Z,76.92
2017-10-23T16:12:06.688Z,77.08
2017-10-23T16:14:35.021Z,77.75
2017-10-23T16:17:03.441Z,78.10
2017-10-23T16:19:32.530Z,78.72
2017-10-23T16:22:01.216Z,78.50
2017-10-23T16:24:30.849Z,78.66
2017-10-23T16:26:59.181Z,79.06
2017-10-23T16:29:27.542Z,79.17
2017-10-23T16:31:57.079Z,78.84
2017-10-23T16:34:25.415Z,79.88
2017-10-23T16:36:53.851Z,80.18
2017-10-23T16:39:22.970Z,80.14
2017-10-23T16:41:51.323Z,80.45
2017-10-23T16:44:20.428Z,81.03
2017-10-23T16:46:48.773Z,81.06
2017-10-23T16:49:17.089Z,81.38
2017-10-23T16:51:46.615Z,81.09
2017-10-23T16:54:14.926Z,80.99
2017-10-23T16:56:43.965Z,81.54
2017-10-23T16:59:13.083Z,81.66
2017-10-23T17:01:41.436Z,81.28
2017-10-23T17:04:09.789Z,81.60
2017-10-23T17:06:38.127Z,81.71
2017-10-23T17:09:06.961Z,81.77
2017-10-23T17:11:35.280Z,82.48
2017-10-23T17:14:04.381Z,81.67
2017-10-23T17:16:32.700Z,81.97
2017-10-23T17:19:01.801Z,82.19
2017-10-23T17:21:30.536Z,82.56
2017-10-23T17:23:59.656Z,82.33
2017-10-23T17:26:28.020Z,82.45
2017-10-23T17:28:57.560Z,82.80
2017-10-23T17:31:26.784Z,82.65
2017-10-23T17:33:55.531Z,82.59
2017-10-23T17:36:24.651Z,83.47
2017-10-23T17:38:53.738Z,83.42
2017-10-23T17:41:22.087Z,83.53
2017-10-23T17:43:50.871Z,83.55
2017-10-23T17:46:19.992Z,83.38
2017-10-23T17:48:48.317Z,83.67
2017-10-23T17:51:16.899Z,83.30
2017-10-23T17:53:45.226Z,83.47
2017-10-23T17:56:13.558Z,84.09
2017-10-23T17:58:41.902Z,84.34
2017-10-23T18:01:10.235Z,84.62
2017-10-23T18:03:39.759Z,84.51
2017-10-23T18:06:08.854Z,84.29
2017-10-23T18:08:37.196Z,84.18
2017-10-23T18:11:05.522Z,84.03
2017-10-23T18:13:33.884Z,84.26
2017-10-23T18:16:02.995Z,84.74
2017-10-23T18:18:31.329Z,84.82
2017-10-23T18:20:59.677Z,84.72
2017-10-23T18:23:32.309Z,84.72
2017-10-23T18:26:03.299Z,85.00
2017-10-23T18:28:31.848Z,85.47
2017-10-23T18:31:01.192Z,85.57
2017-10-23T18:33:29.518Z,85.92
2017-10-23T18:35:57.942Z,85.85
2017-10-23T18:38:26.308Z,85.94
2017-10-23T18:40:54.762Z,85.84
2017-10-23T18:43:23.118Z,85.64
2017-10-23T18:45:51.450Z,85.61
2017-10-23T18:48:19.806Z,85.97
2017-10-23T18:50:48.896Z,85.90
2017-10-23T18:53:17.251Z,85.71
2017-10-23T18:55:45.597Z,85.69
2017-10-23T18:58:14.358Z,85.94
2017-10-23T19:00:42.680Z,85.92
2017-10-23T19:03:11.015Z,86.21
2017-10-23T19:05:40.142Z,86.39
2017-10-23T19:08:08.497Z,86.59
2017-10-23T19:10:37.714Z,86.78
2017-10-23T19:13:06.035Z,86.99
2017-10-23T19:15:34.380Z,87.24
2017-10-23T19:18:02.696Z,87.34
2017-10-23T19:20:33.477Z,87.17
2017-10-23T19:23:02.698Z,87.08
2017-10-23T19:25:31.093Z,87.41
2017-10-23T19:27:59.449Z,87.77
2017-10-23T19:30:27.775Z,87.20
2017-10-23T19:32:56.203Z,87.13
2017-10-23T19:35:24.634Z,87.19
2017-10-23T19:37:53.003Z,87.49
2017-10-23T19:40:21.431Z,87.54
2017-10-23T19:42:49.776Z,87.47
2017-10-23T19:45:18.115Z,87.59
2017-10-23T19:47:46.436Z,87.61
2017-10-23T19:50:15.577Z,87.76
2017-10-23T19:52:43.905Z,87.94
2017-10-23T19:55:12.282Z,88.13
2017-10-23T19:57:40.607Z,87.97
2017-10-23T20:00:08.963Z,87.97
2017-10-23T20:02:38.060Z,88.04
2017-10-23T20:05:06.419Z,88.25
2017-10-23T20:07:34.765Z,88.46
2017-10-23T20:10:03.085Z,88.35
2017-10-23T20:12:32.343Z,88.52
2017-10-23T20:15:00.661Z,88.63
2017-10-23T20:17:29.006Z,88.46
2017-10-23T20:19:57.326Z,88.44
2017-10-23T20:22:25.677Z,88.55
2017-10-23T20:24:54.002Z,88.52
2017-10-23T20:27:23.114Z,88.86
2017-10-23T20:29:51.439Z,88.90
2017-10-23T20:32:19.789Z,88.76
2017-10-23T20:34:48.140Z,88.82
2017-10-23T20:37:17.250Z,89.32
2017-10-23T20:39:45.684Z,89.04
2017-10-23T20:42:14.057Z,89.05
2017-10-23T20:44:42.413Z,89.28
2017-10-23T20:47:10.746Z,88.98
2017-10-23T20:49:39.089Z,88.90
2017-10-23T20:52:07.438Z,88.92
2017-10-23T20:54:35.823Z,88.80
2017-10-23T20:57:04.337Z,88.61
2017-10-23T20:59:32.782Z,88.64
2017-10-23T21:02:01.115Z,88.91
2017-10-23T21:04:29.637Z,88.69
2017-10-23T21:06:57.987Z,88.57
2017-10-23T21:09:27.085Z,88.69
2017-10-23T21:11:55.454Z,88.48
2017-10-23T21:14:23.778Z,88.77
2017-10-23T21:16:52.099Z,88.58
2017-10-23T21:19:20.469Z,88.65
2017-10-23T21:21:49.250Z,88.95
2017-10-23T21:24:17.592Z,88.98
2017-10-23T21:26:46.701Z,89.18
2017-10-23T21:29:15.042Z,88.87
2017-10-23T21:31:43.393Z,89.04
2017-10-23T21:34:11.711Z,88.89
2017-10-23T21:36:40.827Z,89.22
2017-10-23T21:39:09.248Z,89.06
2017-10-23T21:41:37.856Z,89.44
2017-10-23T21:44:06.194Z,89.50
2017-10-23T21:46:52.880Z,89.26
2017-10-23T21:49:21.214Z,89.04
2017-10-23T21:51:49.540Z,89.23
2017-10-23T21:54:18.393Z,89.01
2017-10-23T21:56:47.144Z,89.04
2017-10-23T21:59:15.729Z,89.16
2017-10-23T22:01:44.753Z,89.15
2017-10-23T22:04:13.166Z,89.10
2017-10-23T22:06:42.286Z,89.22
2017-10-23T22:09:10.610Z,89.06
2017-10-23T22:11:38.960Z,89.36
2017-10-23T22:14:07.289Z,89.32
2017-10-23T22:16:36.131Z,89.45
2017-10-23T22:19:04.447Z,89.56
2017-10-23T22:21:32.768Z,89.27
2017-10-23T22:24:02.062Z,89.45
2017-10-23T22:26:31.154Z,89.23
2017-10-23T22:28:59.488Z,89.06
2017-10-23T22:31:27.805Z,89.70
2017-10-23T22:33:57.175Z,89.40
2017-10-23T22:36:25.495Z,89.24
2017-10-23T22:38:54.565Z,89.19
2017-10-23T22:41:22.924Z,89.24
2017-10-23T22:43:51.248Z,89.46
2017-10-23T22:46:20.371Z,89.53
2017-10-23T22:48:48.697Z,89.53
2017-10-23T22:51:17.043Z,89.58
2017-10-23T22:53:45.354Z,89.30
2017-10-23T22:56:13.938Z,89.32
2017-10-23T22:58:42.265Z,89.59
2017-10-23T23:01:10.595Z,90.12
2017-10-23T23:03:39.823Z,90.07
2017-10-23T23:06:08.913Z,90.19
2017-10-23T23:08:38.433Z,90.44
2017-10-23T23:11:07.534Z,90.40
2017-10-23T23:13:35.885Z,90.36
2017-10-23T23:16:04.284Z,90.55
2017-10-23T23:18:32.617Z,90.46
2017-10-23T23:21:00.939Z,90.70
2017-10-23T23:23:30.018Z,90.84
2017-10-23T23:25:58.379Z,90.83
2017-10-23T23:28:26.690Z,91.14
2017-10-23T23:30:55.803Z,91.21
2017-10-23T23:33:24.138Z,91.21
2017-10-23T23:35:52.465Z,91.00
2017-10-23T23:38:20.801Z,91.05
2017-10-23T23:40:49.509Z,91.40
2017-10-23T23:43:17.902Z,91.45
2017-10-23T23:45:47.001Z,91.30
2017-10-23T23:48:16.106Z,91.30
2017-10-23T23:50:44.425Z,91.40
2017-10-23T23:53:13.023Z,91.76
2017-10-23T23:55:42.288Z,91.82
2017-10-23T23:58:10.632Z,91.71
